Time;durP1;ratioP1;P1;durP2;ratioP2;P2;SDS_P1;SDS_P2;PMS_P1;PMS_P2;Temp;Humidity;BMP_temperature;BMP_pressure;BME280_temperature;BME280_humidity;BME280_pressure;Samples;Min_cycle;Max_cycle;Signal;HPM_P1;HPM_P2
2023/03/15 00:02:07;;;;;;;21.77;10.30;;;9.00;99.90;;;;;;4931233;28;20046;-78
2023/03/15 00:04:34;;;;;;;18.20;10.60;;;9.00;99.90;;;;;;4933616;29;20051;-77
2023/03/15 00:07:00;;;;;;;17.77;9.68;;;8.90;99.90;;;;;;4933047;29;20039;-78
2023/03/15 00:09:26;;;;;;;18.05;10.35;;;8.90;99.90;;;;;;4916441;29;20044;-78
2023/03/15 00:11:55;;;;;;;18.45;10.63;;;8.90;99.90;;;;;;4922744;29;20023;-78
2023/03/15 00:14:21;;;;;;;17.95;9.93;;;8.90;99.90;;;;;;4954335;29;20027;-78
2023/03/15 00:16:47;;;;;;;18.27;9.45;;;8.90;99.90;;;;;;4939191;28;20374;-78
2023/03/15 00:19:13;;;;;;;17.63;9.00;;;8.90;99.90;;;;;;4932295;29;20507;-78
2023/03/15 00:21:42;;;;;;;16.00;9.30;;;8.90;99.90;;;;;;4901658;29;20036;-78
2023/03/15 00:24:11;;;;;;;18.25;10.13;;;8.90;99.90;;;;;;4917267;29;20051;-78
2023/03/15 00:26:37;;;;;;;20.85;9.30;;;9.00;99.90;;;;;;4935681;29;20492;-78
2023/03/15 00:29:03;;;;;;;15.73;9.05;;;8.90;99.90;;;;;;4933593;29;20051;-78
2023/03/15 00:31:29;;;;;;;19.17;9.90;;;8.80;99.90;;;;;;4933667;28;20043;-78
2023/03/15 00:33:55;;;;;;;15.27;9.40;;;8.80;99.90;;;;;;4917265;29;20043;-78
2023/03/15 00:36:22;;;;;;;16.57;9.90;;;8.80;99.90;;;;;;4934149;29;20028;-78
2023/03/15 00:38:48;;;;;;;22.53;10.87;;;8.80;99.90;;;;;;4917184;29;20044;-78
2023/03/15 00:41:16;;;;;;;17.70;10.77;;;8.80;99.90;;;;;;4933036;29;20032;-78
2023/03/15 00:43:42;;;;;;;18.20;10.43;;;8.90;99.90;;;;;;4934741;29;20036;-78
2023/03/15 00:46:08;;;;;;;20.23;10.40;;;8.90;99.90;;;;;;4916366;28;20040;-78
2023/03/15 00:48:34;;;;;;;18.70;11.90;;;8.90;99.90;;;;;;4921160;29;20028;-78
2023/03/15 00:51:05;;;;;;;22.53;11.53;;;8.90;99.90;;;;;;4936630;29;20039;-78
2023/03/15 00:53:31;;;;;;;18.77;10.60;;;9.00;99.90;;;;;;4903430;29;20036;-77
2023/03/15 00:55:57;;;;;;;19.33;10.68;;;8.90;99.90;;;;;;4936586;29;20039;-78
2023/03/15 00:58:23;;;;;;;23.88;10.90;;;8.90;99.90;;;;;;4920535;29;20047;-78
2023/03/15 01:00:50;;;;;;;18.83;11.30;;;9.00;99.90;;;;;;4936112;28;20036;-78
2023/03/15 01:03:16;;;;;;;17.13;11.10;;;9.00;99.90;;;;;;4936672;29;20039;-78
2023/03/15 01:05:42;;;;;;;17.52;10.23;;;9.00;99.90;;;;;;4937754;29;20036;-79
2023/03/15 01:08:08;;;;;;;18.85;11.07;;;9.00;99.90;;;;;;4935933;29;20059;-79
2023/03/15 01:10:34;;;;;;;23.25;11.25;;;9.00;99.90;;;;;;4934829;29;20057;-79
2023/03/15 01:13:01;;;;;;;15.63;10.98;;;9.00;99.90;;;;;;4945297;29;20043;-79
2023/03/15 01:15:27;;;;;;;18.48;10.80;;;9.00;99.90;;;;;;4935852;28;20039;-78
2023/03/15 01:17:54;;;;;;;16.90;10.18;;;9.00;99.90;;;;;;4919486;29;20044;-78
2023/03/15 01:20:20;;;;;;;16.23;9.73;;;9.00;99.90;;;;;;4935991;29;20046;-78
2023/03/15 01:22:47;;;;;;;19.60;10.30;;;9.00;99.90;;;;;;4937554;29;20040;-78
2023/03/15 01:25:13;;;;;;;17.45;9.60;;;9.00;99.90;;;;;;4920809;29;20035;-78
2023/03/15 01:27:39;;;;;;;16.08;9.23;;;9.00;99.90;;;;;;4919659;29;20040;-78
2023/03/15 01:30:05;;;;;;;19.85;9.32;;;8.90;99.90;;;;;;4918800;28;20479;-78
2023/03/15 01:32:31;;;;;;;18.40;10.15;;;9.00;99.90;;;;;;4934847;29;20040;-78
2023/03/15 01:34:57;;;;;;;12.13;8.57;;;9.00;99.90;;;;;;4936101;29;20044;-78
2023/03/15 01:37:24;;;;;;;16.83;8.98;;;9.00;99.90;;;;;;4936314;29;20039;-78
2023/03/15 01:39:50;;;;;;;16.80;9.20;;;9.00;99.90;;;;;;4936075;29;20043;-78
2023/03/15 01:42:16;;;;;;;15.23;8.63;;;8.90;99.90;;;;;;4935568;29;20738;-78
2023/03/15 01:45:00;;;;;;;22.10;9.38;;;8.90;99.90;;;;;;4928749;29;20039;-78
2023/03/15 01:47:26;;;;;;;21.27;9.20;;;8.90;99.90;;;;;;4934818;28;20036;-78
2023/03/15 01:50:00;;;;;;;20.52;9.10;;;8.90;99.90;;;;;;4935304;29;20062;-78
2023/03/15 01:52:30;;;;;;;19.42;9.48;;;8.90;99.90;;;;;;4935264;29;20031;-79
2023/03/15 01:55:11;;;;;;;14.30;8.83;;;8.80;99.90;;;;;;4920513;29;20035;-79
2023/03/15 01:57:42;;;;;;;16.30;8.95;;;8.80;99.90;;;;;;4904247;29;20048;-78
2023/03/15 02:00:13;;;;;;;15.75;8.63;;;8.80;99.90;;;;;;4922325;28;20489;-77
2023/03/15 02:02:45;;;;;;;17.00;9.07;;;8.80;99.90;;;;;;4933467;29;20032;-78
2023/03/15 02:05:13;;;;;;;14.02;8.90;;;8.70;99.90;;;;;;4903077;29;20036;-78
2023/03/15 02:07:48;;;;;;;18.40;9.27;;;8.70;99.90;;;;;;4935130;29;20043;-79
2023/03/15 02:10:30;;;;;;;16.95;8.55;;;8.70;99.90;;;;;;4919931;29;20044;-79
2023/03/15 02:12:56;;;;;;;16.50;8.85;;;8.80;99.90;;;;;;4917874;29;20047;-79
2023/03/15 02:15:22;;;;;;;19.75;9.52;;;8.80;99.90;;;;;;4937111;28;20409;-78
2023/03/15 02:17:49;;;;;;;20.52;9.40;;;8.80;99.90;;;;;;4943337;29;20028;-79
2023/03/15 02:20:26;;;;;;;21.05;9.80;;;8.80;99.90;;;;;;4923276;29;20481;-78
2023/03/15 02:22:58;;;;;;;18.02;8.65;;;8.80;99.90;;;;;;4935555;29;20035;-78
2023/03/15 02:26:01;;;;;;;16.65;9.10;;;8.80;99.90;;;;;;4948220;29;20499;-78
2023/03/15 02:28:27;;;;;;;14.43;8.43;;;8.80;99.90;;;;;;4933927;29;20493;-78
2023/03/15 02:30:53;;;;;;;17.10;9.05;;;8.70;99.90;;;;;;4917529;28;20047;-72
2023/03/15 02:33:47;;;;;;;18.02;8.88;;;8.80;99.90;;;;;;4919035;29;20036;-72
2023/03/15 02:36:25;;;;;;;21.08;8.70;;;9.00;99.90;;;;;;4919663;29;20031;-72
2023/03/15 02:38:51;;;;;;;13.68;8.27;;;9.20;99.90;;;;;;4919473;29;20039;-72
2023/03/15 02:41:24;;;;;;;14.80;8.38;;;9.40;99.90;;;;;;4933855;29;20039;-73
2023/03/15 02:43:52;;;;;;;15.27;8.40;;;9.50;99.90;;;;;;4934174;29;20436;-76
2023/03/15 02:46:18;;;;;;;16.70;7.93;;;9.50;99.90;;;;;;4926846;29;20044;-78
2023/03/15 02:48:44;;;;;;;17.23;8.07;;;9.30;99.90;;;;;;4917605;29;20035;-76
2023/03/15 02:51:20;;;;;;;18.17;8.85;;;9.20;99.90;;;;;;4935909;29;20473;-76
2023/03/15 02:53:46;;;;;;;12.10;7.95;;;9.10;99.90;;;;;;4935181;29;20039;-76
2023/03/15 02:56:13;;;;;;;19.90;9.10;;;9.00;99.90;;;;;;4935168;29;20031;-76
2023/03/15 02:58:39;;;;;;;15.05;8.35;;;9.00;99.90;;;;;;4919228;29;20043;-76
2023/03/15 03:01:05;;;;;;;20.88;9.02;;;8.90;99.90;;;;;;4918556;29;20031;-76
2023/03/15 03:03:31;;;;;;;16.00;8.52;;;8.80;99.90;;;;;;4934638;29;20031;-76
2023/03/15 03:05:57;;;;;;;17.63;8.85;;;8.80;99.90;;;;;;4936243;29;20040;-76
2023/03/15 03:08:23;;;;;;;17.65;9.73;;;8.80;99.90;;;;;;4934749;29;20035;-76
2023/03/15 03:10:50;;;;;;;15.80;9.13;;;8.70;99.90;;;;;;4935474;29;20075;-76
2023/03/15 03:13:16;;;;;;;13.52;8.88;;;8.70;99.90;;;;;;4951966;29;20036;-76
2023/03/15 03:15:44;;;;;;;18.13;8.90;;;8.70;99.90;;;;;;4937390;28;20043;-76
2023/03/15 03:18:10;;;;;;;16.48;9.50;;;8.60;99.90;;;;;;4953549;29;20035;-76
2023/03/15 03:20:36;;;;;;;19.23;9.23;;;8.60;99.90;;;;;;4954933;29;20047;-76
2023/03/15 03:23:04;;;;;;;16.92;9.18;;;8.60;99.90;;;;;;4937772;29;20034;-76
2023/03/15 03:25:31;;;;;;;16.77;8.80;;;8.60;99.90;;;;;;4954759;29;20054;-76
2023/03/15 03:27:58;;;;;;;14.63;8.60;;;8.60;99.90;;;;;;4953707;29;20031;-77
2023/03/15 03:30:24;;;;;;;15.98;8.50;;;8.60;99.90;;;;;;4950363;28;20063;-76
2023/03/15 03:32:50;;;;;;;17.95;9.45;;;8.60;99.90;;;;;;4918496;29;20047;-76
2023/03/15 03:35:16;;;;;;;16.70;8.70;;;8.50;99.90;;;;;;4918769;29;20491;-76
2023/03/15 03:37:42;;;;;;;15.38;8.15;;;8.50;99.90;;;;;;4918703;29;20402;-76
2023/03/15 03:40:10;;;;;;;18.45;8.57;;;8.50;99.90;;;;;;4934532;29;20044;-76
2023/03/15 03:42:36;;;;;;;18.50;8.82;;;8.60;99.90;;;;;;4935410;29;20027;-76
2023/03/15 03:45:02;;;;;;;13.38;8.05;;;8.50;99.90;;;;;;4934361;29;20042;-76
2023/03/15 03:47:28;;;;;;;18.50;8.70;;;8.50;99.90;;;;;;4934466;29;20499;-76
2023/03/15 03:49:54;;;;;;;16.40;8.75;;;8.50;99.90;;;;;;4934120;29;20036;-76
2023/03/15 03:52:20;;;;;;;12.65;7.85;;;8.50;99.90;;;;;;4934220;29;20055;-76
2023/03/15 03:54:47;;;;;;;16.92;8.40;;;8.50;99.90;;;;;;4934160;29;20039;-76
2023/03/15 03:57:13;;;;;;;15.35;7.72;;;8.60;99.90;;;;;;4935187;29;20039;-76
2023/03/15 03:59:39;;;;;;;12.90;7.72;;;8.60;99.90;;;;;;4933814;29;20046;-76
2023/03/15 04:02:05;;;;;;;14.97;7.63;;;8.60;99.90;;;;;;4933488;28;20036;-76
2023/03/15 04:04:31;;;;;;;16.13;7.30;;;8.50;99.90;;;;;;4934067;29;20206;-76
2023/03/15 04:06:57;;;;;;;12.07;6.93;;;8.50;99.90;;;;;;4934065;29;20028;-77
2023/03/15 04:09:23;;;;;;;13.25;7.70;;;8.60;99.90;;;;;;4933748;29;20063;-76
2023/03/15 04:11:49;;;;;;;17.37;7.53;;;8.60;99.90;;;;;;4939633;29;20053;-76
2023/03/15 04:14:16;;;;;;;15.57;6.80;;;8.60;99.90;;;;;;4953169;29;20035;-77
2023/03/15 04:16:42;;;;;;;12.20;6.67;;;8.60;99.90;;;;;;4952368;28;20032;-76
2023/03/15 04:19:08;;;;;;;20.88;7.82;;;8.50;99.90;;;;;;4954091;29;20042;-76
2023/03/15 04:21:34;;;;;;;15.55;7.75;;;8.50;99.90;;;;;;4955584;28;20396;-76
2023/03/15 04:24:00;;;;;;;12.88;7.55;;;8.40;99.90;;;;;;4958257;29;20027;-76
2023/03/15 04:26:27;;;;;;;11.20;6.68;;;8.50;99.90;;;;;;4941069;29;20031;-76
2023/03/15 04:28:53;;;;;;;13.77;6.93;;;8.50;99.90;;;;;;4958074;29;20027;-76
2023/03/15 04:31:20;;;;;;;13.53;7.47;;;8.50;99.90;;;;;;4952260;28;20028;-76
2023/03/15 04:33:46;;;;;;;15.43;7.50;;;8.50;99.90;;;;;;4922186;29;20618;-76
2023/03/15 04:36:17;;;;;;;17.58;7.63;;;8.40;99.90;;;;;;4938699;29;20023;-76
2023/03/15 04:38:47;;;;;;;11.85;7.18;;;8.50;99.90;;;;;;4937533;29;20035;-76
2023/03/15 04:41:14;;;;;;;12.53;7.40;;;8.50;99.90;;;;;;4921885;29;20043;-76
2023/03/15 04:43:41;;;;;;;17.73;8.07;;;8.40;99.90;;;;;;4938722;29;20031;-76
2023/03/15 04:46:07;;;;;;;13.63;7.90;;;8.40;99.90;;;;;;4936729;28;20093;-76
2023/03/15 04:48:33;;;;;;;15.07;7.83;;;8.30;99.90;;;;;;4937374;29;20038;-77
2023/03/15 04:50:59;;;;;;;15.20;7.60;;;8.30;99.90;;;;;;4921680;29;20032;-76
2023/03/15 04:53:25;;;;;;;14.67;7.90;;;8.20;99.90;;;;;;4938548;29;20032;-76
2023/03/15 04:55:52;;;;;;;13.93;7.40;;;8.20;99.90;;;;;;4905936;29;20050;-76
2023/03/15 04:58:18;;;;;;;12.83;7.33;;;8.20;99.90;;;;;;4938466;29;20377;-76
2023/03/15 05:00:44;;;;;;;13.50;8.03;;;8.20;99.90;;;;;;4937488;28;20047;-76
2023/03/15 05:03:10;;;;;;;13.83;7.47;;;8.20;99.90;;;;;;4921414;29;20137;-76
2023/03/15 05:05:36;;;;;;;16.23;7.50;;;8.10;99.90;;;;;;4937196;29;20039;-76
2023/03/15 05:08:02;;;;;;;13.03;7.93;;;8.10;99.90;;;;;;4938363;29;20105;-76
2023/03/15 05:10:29;;;;;;;12.57;7.40;;;8.10;99.90;;;;;;4936946;29;20052;-76
2023/03/15 05:12:55;;;;;;;13.97;7.47;;;8.00;99.90;;;;;;4951351;29;20373;-76
2023/03/15 05:15:21;;;;;;;16.67;8.50;;;8.00;99.90;;;;;;4956469;28;20031;-76
2023/03/15 05:17:47;;;;;;;12.80;8.13;;;8.10;99.90;;;;;;4956066;29;20058;-76
2023/03/15 05:20:14;;;;;;;12.40;8.00;;;8.00;99.90;;;;;;4955876;29;20440;-75
2023/03/15 05:22:41;;;;;;;13.43;7.80;;;7.90;99.90;;;;;;4956001;29;20491;-76
2023/03/15 05:25:07;;;;;;;15.13;9.00;;;7.90;99.90;;;;;;4957269;28;20039;-76
2023/03/15 05:27:33;;;;;;;18.67;7.70;;;7.80;99.90;;;;;;4957002;28;20500;-76
2023/03/15 05:30:03;;;;;;;14.88;8.18;;;7.80;99.90;;;;;;4956728;29;20038;-76
2023/03/15 05:32:33;;;;;;;14.47;8.27;;;7.90;99.90;;;;;;4937264;29;20048;-77
2023/03/15 05:35:02;;;;;;;10.67;7.50;;;7.80;99.90;;;;;;4918795;29;20031;-76
2023/03/15 05:37:29;;;;;;;16.00;7.80;;;7.80;99.90;;;;;;4917668;29;20032;-76
2023/03/15 05:39:55;;;;;;;15.97;8.30;;;7.70;99.90;;;;;;4917641;29;20044;-76
2023/03/15 05:42:24;;;;;;;12.93;7.87;;;7.70;99.90;;;;;;4918699;29;20028;-76
2023/03/15 05:44:51;;;;;;;16.33;8.57;;;7.70;99.90;;;;;;4918301;29;20028;-76
2023/03/15 05:47:18;;;;;;;15.13;8.00;;;7.70;99.90;;;;;;4935773;28;20043;-76
2023/03/15 05:49:44;;;;;;;12.67;7.67;;;7.60;99.90;;;;;;4920605;29;20401;-77
2023/03/15 05:52:10;;;;;;;14.63;8.03;;;7.60;99.90;;;;;;4936467;29;20331;-76
2023/03/15 05:54:36;;;;;;;14.07;8.13;;;7.50;99.90;;;;;;4937515;29;20035;-77
2023/03/15 05:57:02;;;;;;;13.00;8.40;;;7.50;99.90;;;;;;4936322;29;20032;-76
2023/03/15 05:59:28;;;;;;;15.03;8.03;;;7.50;99.90;;;;;;4937116;29;20384;-77
2023/03/15 06:01:54;;;;;;;14.10;8.97;;;7.40;99.90;;;;;;4935857;28;20043;-79
2023/03/15 06:04:21;;;;;;;15.90;8.63;;;7.40;99.90;;;;;;4937211;29;20058;-78
2023/03/15 06:06:47;;;;;;;15.13;8.47;;;7.40;99.90;;;;;;4920252;29;20043;-77
2023/03/15 06:09:13;;;;;;;15.33;9.10;;;7.40;99.90;;;;;;4937056;29;20480;-79
2023/03/15 06:11:39;;;;;;;14.67;9.10;;;7.30;99.90;;;;;;4923434;29;20039;-77
2023/03/15 06:14:05;;;;;;;17.13;10.13;;;7.30;99.90;;;;;;4956023;29;20034;-79
2023/03/15 06:16:31;;;;;;;17.37;10.53;;;7.30;99.90;;;;;;4955648;28;20031;-77
2023/03/15 06:18:57;;;;;;;18.13;9.70;;;7.20;99.90;;;;;;4955104;29;20042;-77
2023/03/15 06:21:23;;;;;;;17.67;10.43;;;7.20;99.90;;;;;;4956012;29;20043;-77
2023/03/15 06:23:49;;;;;;;16.13;9.30;;;7.20;99.90;;;;;;4955865;29;20050;-77
2023/03/15 06:26:17;;;;;;;16.53;9.10;;;7.10;99.90;;;;;;4954756;29;20031;-78
2023/03/15 06:28:44;;;;;;;13.73;8.77;;;7.10;99.90;;;;;;4954551;29;20392;-79
2023/03/15 06:31:12;;;;;;;15.63;8.60;;;7.10;99.90;;;;;;4951585;28;20047;-78
2023/03/15 06:33:38;;;;;;;17.10;9.40;;;7.10;99.90;;;;;;4920139;29;20031;-79
2023/03/15 06:36:04;;;;;;;16.93;9.30;;;7.10;99.90;;;;;;4904188;29;20413;-79
2023/03/15 06:38:30;;;;;;;15.93;9.00;;;7.00;99.90;;;;;;4935211;29;20040;-77
2023/03/15 06:40:59;;;;;;;19.07;10.07;;;7.10;99.90;;;;;;4934980;29;20054;-79
2023/03/15 06:43:26;;;;;;;17.90;9.30;;;7.10;99.90;;;;;;4934970;29;20028;-79
2023/03/15 06:45:54;;;;;;;19.40;9.50;;;7.10;99.90;;;;;;4935523;28;20027;-78
2023/03/15 06:48:20;;;;;;;13.17;8.23;;;7.20;99.90;;;;;;4935251;29;20036;-78
2023/03/15 06:50:47;;;;;;;13.30;9.10;;;7.20;99.90;;;;;;4936507;29;20035;-77
2023/03/15 06:53:13;;;;;;;22.00;9.83;;;7.30;99.90;;;;;;4919566;29;20388;-77
2023/03/15 06:55:39;;;;;;;20.77;9.77;;;7.30;99.90;;;;;;4934836;29;20433;-77
2023/03/15 06:58:05;;;;;;;22.87;12.93;;;7.30;99.90;;;;;;4936193;29;20031;-77
2023/03/15 07:00:31;;;;;;;25.77;14.90;;;7.20;99.90;;;;;;4935877;28;20044;-77
2023/03/15 07:02:57;;;;;;;32.47;18.17;;;7.30;99.90;;;;;;4936116;29;20466;-77
2023/03/15 07:05:23;;;;;;;75.17;35.30;;;7.10;99.90;;;;;;4935070;29;20040;-77
2023/03/15 07:07:49;;;;;;;35.47;18.17;;;7.00;99.90;;;;;;4934850;29;20114;-77
2023/03/15 07:10:16;;;;;;;29.90;14.70;;;7.10;99.90;;;;;;4935459;29;20404;-77
2023/03/15 07:12:42;;;;;;;23.77;12.90;;;7.10;99.90;;;;;;4946667;28;20039;-77
2023/03/15 07:15:08;;;;;;;28.93;14.40;;;7.30;99.90;;;;;;4954612;28;20050;-77
2023/03/15 07:17:34;;;;;;;31.08;11.43;;;7.50;99.90;;;;;;4955126;29;20503;-78
2023/03/15 07:20:00;;;;;;;17.25;8.73;;;7.90;99.90;;;;;;4954824;29;20043;-78
2023/03/15 07:22:27;;;;;;;22.15;7.90;;;8.20;99.90;;;;;;4953862;29;20035;-78
2023/03/15 07:24:53;;;;;;;19.15;9.75;;;8.50;99.90;;;;;;4954507;29;20031;-79
2023/03/15 07:27:19;;;;;;;17.40;9.48;;;8.70;99.90;;;;;;4954682;28;20539;-78
2023/03/15 07:29:45;;;;;;;20.38;9.38;;;8.60;99.90;;;;;;4954796;28;20039;-78
2023/03/15 07:32:11;;;;;;;15.93;8.70;;;8.40;99.90;;;;;;4943438;28;20063;-77
2023/03/15 07:34:37;;;;;;;14.32;8.65;;;8.40;99.90;;;;;;4934418;29;20126;-78
2023/03/15 07:37:03;;;;;;;21.92;9.18;;;8.40;99.90;;;;;;4934322;29;20020;-77
2023/03/15 07:39:31;;;;;;;17.00;8.10;;;8.40;99.90;;;;;;4935130;29;20040;-78
2023/03/15 07:42:00;;;;;;;17.63;8.50;;;8.30;99.90;;;;;;4934176;29;20063;-77
2023/03/15 07:44:26;;;;;;;18.75;9.30;;;8.30;99.90;;;;;;4935419;29;20027;-78
2023/03/15 07:46:53;;;;;;;19.05;8.15;;;8.60;99.90;;;;;;4918271;29;20039;-78
2023/03/15 07:49:19;;;;;;;19.80;8.48;;;9.10;99.90;;;;;;4918554;29;20028;-78
2023/03/15 07:51:46;;;;;;;12.23;7.68;;;9.60;99.90;;;;;;4935185;29;20024;-78
2023/03/15 07:54:12;;;;;;;17.77;8.20;;;9.90;99.90;;;;;;4933940;29;20032;-78
2023/03/15 07:56:38;;;;;;;13.38;6.93;;;10.00;99.90;;;;;;4917984;29;20047;-78
2023/03/15 07:59:04;;;;;;;14.23;7.60;;;10.10;99.90;;;;;;4935132;29;20037;-78
2023/03/15 08:01:31;;;;;;;16.80;7.95;;;10.00;99.90;;;;;;4917386;29;20051;-78
2023/03/15 08:03:57;;;;;;;17.00;8.00;;;9.80;99.90;;;;;;4934085;29;20040;-78
2023/03/15 08:06:23;;;;;;;18.25;8.13;;;10.00;99.90;;;;;;4934117;29;20032;-78
2023/03/15 08:08:50;;;;;;;15.45;8.25;;;10.60;99.90;;;;;;4934857;29;20032;-78
2023/03/15 08:11:16;;;;;;;12.18;7.70;;;11.00;99.90;;;;;;4933721;29;20047;-78
2023/03/15 08:13:42;;;;;;;11.65;7.55;;;11.10;99.90;;;;;;4937207;29;20035;-79
2023/03/15 08:16:08;;;;;;;10.13;7.10;;;11.50;99.90;;;;;;4953823;28;20039;-79
2023/03/15 08:18:34;;;;;;;12.75;6.28;;;12.00;99.90;;;;;;4937108;29;20038;-78
2023/03/15 08:21:00;;;;;;;13.70;7.05;;;12.40;99.90;;;;;;4954032;29;20043;-79
2023/03/15 08:23:26;;;;;;;13.93;6.90;;;12.80;99.90;;;;;;4952884;29;20389;-79
2023/03/15 08:25:52;;;;;;;11.77;6.65;;;12.80;99.90;;;;;;4954123;29;20043;-78
2023/03/15 08:28:19;;;;;;;15.23;6.82;;;12.50;99.90;;;;;;4953110;29;20389;-78
2023/03/15 08:30:45;;;;;;;12.40;7.22;;;12.00;99.90;;;;;;4954331;28;20035;-78
2023/03/15 08:33:11;;;;;;;16.80;6.93;;;11.50;99.90;;;;;;4935478;29;20049;-78
2023/03/15 08:35:37;;;;;;;14.15;6.82;;;11.90;99.90;;;;;;4935027;29;20027;-77
2023/03/15 08:38:03;;;;;;;12.63;7.45;;;12.10;99.90;;;;;;4933632;29;20421;-77
2023/03/15 08:40:29;;;;;;;17.92;6.70;;;11.80;99.90;;;;;;4934743;29;20044;-78
2023/03/15 08:42:56;;;;;;;13.73;6.93;;;11.50;99.90;;;;;;4918028;29;20102;-77
2023/03/15 08:45:23;;;;;;;14.65;6.93;;;11.30;99.90;;;;;;4933593;28;20385;-77
2023/03/15 08:47:53;;;;;;;10.93;6.18;;;11.40;99.90;;;;;;4933627;29;20031;-77
2023/03/15 08:50:19;;;;;;;16.38;6.55;;;11.40;99.90;;;;;;4934786;29;20032;-77
2023/03/15 08:52:45;;;;;;;14.32;6.78;;;11.40;99.90;;;;;;4934582;29;20032;-77
2023/03/15 08:55:13;;;;;;;13.73;6.82;;;11.70;99.90;;;;;;4933515;29;20034;-78
2023/03/15 08:57:39;;;;;;;12.88;6.70;;;11.90;99.90;;;;;;4918074;29;20047;-77
2023/03/15 09:00:09;;;;;;;13.85;6.78;;;12.30;99.90;;;;;;4933072;28;20027;-77
2023/03/15 09:02:35;;;;;;;18.25;6.88;;;12.60;99.90;;;;;;4918369;29;20031;-77
2023/03/15 09:05:03;;;;;;;16.75;8.13;;;12.50;99.90;;;;;;4933680;29;20461;-77
2023/03/15 09:07:31;;;;;;;13.77;7.35;;;12.40;99.90;;;;;;4918723;29;20044;-77
2023/03/15 09:09:57;;;;;;;12.75;7.00;;;12.50;99.90;;;;;;4938107;29;20047;-77
2023/03/15 09:12:23;;;;;;;13.43;6.85;;;12.70;99.90;;;;;;4914631;29;20062;-78
2023/03/15 09:14:49;;;;;;;15.00;6.10;;;13.20;99.90;;;;;;4957316;29;20035;-77
2023/03/15 09:17:15;;;;;;;12.30;6.78;;;13.70;99.90;;;;;;4956902;28;20066;-78
2023/03/15 09:19:41;;;;;;;10.13;6.55;;;14.30;99.90;;;;;;4939832;29;20047;-78
2023/03/15 09:22:08;;;;;;;14.55;7.35;;;14.60;99.90;;;;;;4956939;29;20074;-77
2023/03/15 09:24:34;;;;;;;15.27;6.95;;;14.90;99.90;;;;;;4956067;29;20034;-78
2023/03/15 09:27:00;;;;;;;10.35;6.20;;;15.10;99.90;;;;;;4957017;29;20031;-77
2023/03/15 09:29:26;;;;;;;14.13;6.22;;;15.30;99.90;;;;;;4940050;29;20050;-77
2023/03/15 09:31:52;;;;;;;10.63;6.57;;;15.30;99.90;;;;;;4947012;28;20048;-77
2023/03/15 09:34:18;;;;;;;9.55;5.43;;;14.50;99.90;;;;;;4937707;29;20024;-77
2023/03/15 09:36:44;;;;;;;15.35;6.53;;;14.10;99.90;;;;;;4937487;29;20047;-77
2023/03/15 09:39:10;;;;;;;9.82;5.82;;;14.30;99.90;;;;;;4936465;29;20028;-77
2023/03/15 09:41:52;;;;;;;10.38;5.70;;;14.70;99.90;;;;;;4937565;29;20051;-77
2023/03/15 09:44:43;;;;;;;10.82;5.05;;;15.00;99.90;;;;;;4936432;29;20035;-77
2023/03/15 09:47:36;;;;;;;9.38;5.72;;;15.30;99.90;;;;;;4936123;28;20039;-78
2023/03/15 09:50:17;;;;;;;10.13;5.95;;;15.70;99.90;;;;;;4937257;29;20043;-77
2023/03/15 09:52:50;;;;;;;9.95;5.97;;;15.80;99.90;;;;;;4936536;29;20034;-77
2023/03/15 09:55:18;;;;;;;9.52;6.25;;;15.80;99.90;;;;;;4921005;29;20334;-76
2023/03/15 09:57:47;;;;;;;10.52;6.53;;;16.00;99.90;;;;;;4936175;29;20031;-77
2023/03/15 10:00:21;;;;;;;8.18;6.18;;;16.00;99.90;;;;;;4935451;28;20039;-77
2023/03/15 10:02:58;;;;;;;13.00;6.30;;;16.10;99.90;;;;;;4937254;29;20032;-77
2023/03/15 10:05:31;;;;;;;9.35;5.93;;;16.40;99.90;;;;;;4935895;29;20512;-77
2023/03/15 10:07:58;;;;;;;11.25;5.70;;;16.20;99.90;;;;;;4920782;29;20048;-77
2023/03/15 10:10:33;;;;;;;8.10;5.55;;;16.40;99.90;;;;;;4920119;29;20047;-77
2023/03/15 10:13:22;;;;;;;9.82;6.15;;;16.00;99.90;;;;;;4918132;29;20039;-77
2023/03/15 10:16:19;;;;;;;9.60;5.72;;;15.40;99.90;;;;;;4939278;28;20062;-77
2023/03/15 10:19:00;;;;;;;6.18;5.20;;;15.60;99.90;;;;;;4953768;28;20039;-76
2023/03/15 10:21:40;;;;;;;7.03;5.00;;;15.30;99.90;;;;;;4956118;29;20050;-76
2023/03/15 10:24:44;;;;;;;6.40;5.07;;;14.50;99.90;;;;;;4940270;29;20027;-76
2023/03/15 10:27:15;;;;;;;9.48;5.32;;;14.20;99.90;;;;;;4955786;29;20031;-76
2023/03/15 10:29:42;;;;;;;12.52;6.15;;;14.40;99.90;;;;;;4954679;29;20019;-76
2023/03/15 10:32:16;;;;;;;9.38;5.78;;;14.70;99.90;;;;;;4944242;28;20048;-77
2023/03/15 10:34:48;;;;;;;15.32;5.68;;;15.00;99.90;;;;;;4935243;29;20032;-76
2023/03/15 10:37:14;;;;;;;7.45;6.05;;;14.80;99.90;;;;;;4920289;29;20035;-76
2023/03/15 10:39:45;;;;;;;8.40;5.72;;;14.70;99.90;;;;;;4935442;29;20046;-77
2023/03/15 10:42:24;;;;;;;10.43;5.65;;;14.80;99.90;;;;;;4920294;29;20047;-76
2023/03/15 10:44:50;;;;;;;9.07;5.57;;;14.60;99.90;;;;;;4936587;29;20027;-77
2023/03/15 10:47:18;;;;;;;11.57;6.03;;;14.40;99.90;;;;;;4934761;28;20048;-77
2023/03/15 10:49:44;;;;;;;9.07;6.10;;;14.80;99.90;;;;;;4934902;29;20028;-76
2023/03/15 10:52:27;;;;;;;8.40;5.55;;;15.10;99.90;;;;;;4935151;29;20032;-77
2023/03/15 10:54:53;;;;;;;10.25;6.38;;;15.70;99.90;;;;;;4935326;29;20042;-77
2023/03/15 10:57:26;;;;;;;10.52;5.53;;;16.00;99.90;;;;;;4936286;29;20023;-76
2023/03/15 11:00:16;;;;;;;8.80;5.78;;;16.20;99.90;;;;;;4904512;29;20052;-76
2023/03/15 11:02:59;;;;;;;8.90;5.45;;;16.40;99.90;;;;;;4920406;29;20043;-76
2023/03/15 11:05:29;;;;;;;10.77;6.00;;;16.60;99.90;;;;;;4936197;29;20028;-76
2023/03/15 11:07:57;;;;;;;11.77;6.18;;;16.60;99.90;;;;;;4934818;29;20034;-77
2023/03/15 11:10:25;;;;;;;9.82;5.55;;;16.70;99.90;;;;;;4919291;29;20063;-77
2023/03/15 11:13:19;;;;;;;11.75;5.82;;;16.90;99.90;;;;;;4946834;29;20066;-77
2023/03/15 11:16:03;;;;;;;6.82;5.55;;;16.70;99.90;;;;;;4953547;28;20034;-76
2023/03/15 11:18:52;;;;;;;9.48;5.50;;;16.50;99.90;;;;;;4953506;29;20031;-76
2023/03/15 11:21:19;;;;;;;11.00;5.78;;;16.50;99.90;;;;;;4932128;29;20492;-76
2023/03/15 11:23:47;;;;;;;13.07;5.93;;;16.70;99.90;;;;;;4953873;29;20043;-76
2023/03/15 11:26:24;;;;;;;8.13;5.45;;;16.60;99.90;;;;;;4937920;29;20039;-76
2023/03/15 11:29:05;;;;;;;9.18;6.00;;;16.40;99.90;;;;;;4953720;29;20085;-76
2023/03/15 11:31:31;;;;;;;9.82;6.03;;;15.90;99.90;;;;;;4947092;28;20036;-76
2023/03/15 11:34:36;;;;;;;8.32;6.13;;;15.90;99.90;;;;;;4918721;29;20035;-76
2023/03/15 11:37:05;;;;;;;10.60;5.50;;;16.20;99.90;;;;;;4921133;29;20035;-76
2023/03/15 11:39:56;;;;;;;7.72;6.05;;;16.30;99.90;;;;;;4903164;29;20046;-76
2023/03/15 11:42:34;;;;;;;12.23;6.00;;;16.40;99.90;;;;;;4919360;29;20047;-77
2023/03/15 11:45:06;;;;;;;13.10;6.07;;;16.40;99.90;;;;;;4918688;29;20032;-76
2023/03/15 11:47:49;;;;;;;6.75;5.13;;;16.10;99.90;;;;;;4917583;29;20460;-76
2023/03/15 11:50:15;;;;;;;6.22;5.15;;;15.10;99.90;;;;;;4920685;29;20044;-76
2023/03/15 11:52:41;;;;;;;10.10;6.15;;;14.80;99.90;;;;;;4935493;29;20036;-76
2023/03/15 11:55:24;;;;;;;14.90;6.35;;;15.10;99.90;;;;;;4934175;29;20040;-76
2023/03/15 11:57:52;;;;;;;10.02;6.00;;;15.50;99.90;;;;;;4934103;29;20054;-76
2023/03/15 12:00:19;;;;;;;10.15;6.40;;;16.20;99.90;;;;;;4917647;28;20035;-76
2023/03/15 12:02:51;;;;;;;9.27;5.80;;;16.70;99.90;;;;;;4935149;29;20047;-76
2023/03/15 12:05:43;;;;;;;12.65;6.00;;;16.80;99.90;;;;;;4918341;29;20031;-76
2023/03/15 12:08:33;;;;;;;8.10;6.18;;;16.80;99.90;;;;;;4918049;29;20479;-76
2023/03/15 12:10:59;;;;;;;9.32;6.15;;;16.50;99.90;;;;;;4934975;29;20071;-76
2023/03/15 12:13:29;;;;;;;11.15;5.78;;;15.80;99.90;;;;;;4934805;29;20047;-76
2023/03/15 12:15:55;;;;;;;14.90;6.63;;;15.50;99.90;;;;;;4953570;28;20027;-76
2023/03/15 12:18:39;;;;;;;11.23;6.55;;;15.80;99.90;;;;;;4937086;29;20027;-76
2023/03/15 12:21:15;;;;;;;13.75;6.05;;;16.00;99.90;;;;;;4938165;29;20043;-76
2023/03/15 12:24:00;;;;;;;10.18;6.15;;;15.80;99.90;;;;;;4952882;29;20519;-76
2023/03/15 12:26:38;;;;;;;9.40;5.68;;;15.60;99.90;;;;;;4952933;29;20023;-76
2023/03/15 12:29:09;;;;;;;10.68;6.20;;;15.50;99.90;;;;;;4952676;29;20019;-76
2023/03/15 12:32:08;;;;;;;;;;;15.50;99.90;;;;;;4931146;28;20043;-75
2023/03/15 12:34:47;;;;;;;9.98;6.35;;;15.40;99.90;;;;;;4951933;28;19910;-75
2023/03/15 12:37:20;;;;;;;9.73;6.22;;;15.00;99.90;;;;;;4936313;28;20046;-75
2023/03/15 12:39:50;;;;;;;9.70;6.38;;;15.10;99.90;;;;;;4951812;29;20128;-75
2023/03/15 12:42:30;;;;;;;13.18;6.78;;;14.80;99.90;;;;;;4921590;29;20163;-76
2023/03/15 12:45:14;;;;;;;9.60;6.70;;;15.00;99.90;;;;;;4955403;29;20476;-76
2023/03/15 12:47:49;;;;;;;8.60;6.03;;;15.40;99.90;;;;;;4939092;29;20044;-76
2023/03/15 12:50:43;;;;;;;11.02;7.10;;;15.40;99.90;;;;;;4955712;29;20051;-76
2023/03/15 12:53:37;;;;;;;16.45;7.20;;;15.60;99.90;;;;;;4939723;29;20050;-76
2023/03/15 12:56:45;;;;;;;7.68;5.50;;;15.30;99.90;;;;;;4940078;29;20039;-76